Time;durP1;ratioP1;P1;durP2;ratioP2;P2;SDS_P1;SDS_P2;PMS_P1;PMS_P2;Temp;Humidity;BMP_temperature;BMP_pressure;BME280_temperature;BME280_humidity;BME280_pressure;Samples;Min_cycle;Max_cycle;Signal;HPM_P1;HPM_P2
2022/03/04 00:01:44;;;;;;;36.60;24.30;;;;;;;1.86;63.20;100531.98;105337;1279;22795;-76
2022/03/04 00:04:13;;;;;;;37.30;24.80;;;;;;;1.86;63.21;100528.19;105988;1279;22544;-76
2022/03/04 00:06:40;;;;;;;35.30;23.20;;;;;;;1.87;63.51;100525.63;105871;1273;22821;-77
2022/03/04 00:09:07;;;;;;;35.60;24.50;;;;;;;1.99;63.63;100531.85;106262;1273;22536;-75
2022/03/04 00:11:35;;;;;;;33.80;23.30;;;;;;;2.03;63.43;100530.05;105915;1277;25252;-77
2022/03/04 00:14:02;;;;;;;34.60;23.80;;;;;;;2.01;63.22;100531.73;105710;1276;25453;-74
2022/03/04 00:16:29;;;;;;;39.60;24.70;;;;;;;1.95;63.32;100532.96;106015;1277;23948;-79
2022/03/04 00:19:09;;;;;;;35.60;22.70;;;;;;;1.90;63.41;100528.65;105948;1276;23938;-77
2022/03/04 00:21:38;;;;;;;35.10;22.20;;;;;;;1.80;63.48;100531.67;105972;1276;25439;-75
2022/03/04 00:24:06;;;;;;;37.20;24.00;;;;;;;1.74;63.50;100529.59;105930;1276;25247;-74
2022/03/04 00:26:34;;;;;;;39.60;23.70;;;;;;;1.71;63.90;100524.45;106200;1277;24238;-79
2022/03/04 00:29:02;;;;;;;37.10;23.70;;;;;;;1.71;64.00;100527.41;106079;1275;25422;-77
2022/03/04 00:31:30;;;;;;;32.20;19.30;;;;;;;1.75;64.30;100526.65;106261;1274;22535;-75
2022/03/04 00:33:58;;;;;;;39.10;24.90;;;;;;;1.72;64.13;100522.92;106066;1273;22550;-73
2022/03/04 00:36:26;;;;;;;34.90;23.10;;;;;;;1.69;64.40;100522.50;106159;1273;22567;-76
2022/03/04 00:38:55;;;;;;;31.90;22.40;;;;;;;1.68;64.55;100523.52;106140;1273;25367;-71
2022/03/04 00:41:23;;;;;;;31.60;21.60;;;;;;;1.68;64.48;100520.90;106146;1273;22471;-73
2022/03/04 00:43:52;;;;;;;36.10;22.50;;;;;;;1.66;64.44;100517.71;105915;1273;22532;-75
2022/03/04 00:46:19;;;;;;;32.00;21.90;;;;;;;1.60;64.67;100516.15;106163;1273;25404;-75
2022/03/04 00:48:46;;;;;;;31.80;21.40;;;;;;;1.61;64.84;100514.61;106037;1273;24272;-73
2022/03/04 00:51:14;;;;;;;33.10;21.20;;;;;;;1.62;64.92;100516.89;106021;1274;22537;-73
2022/03/04 00:53:42;;;;;;;33.90;22.90;;;;;;;1.60;65.04;100518.05;106109;1273;24272;-73
2022/03/04 00:56:12;;;;;;;38.20;24.10;;;;;;;1.57;64.88;100513.99;105618;1277;24292;-75
2022/03/04 00:58:40;;;;;;;34.90;22.30;;;;;;;1.54;65.06;100516.51;105694;1278;22549;-76
2022/03/04 01:01:08;;;;;;;33.00;21.10;;;;;;;1.52;65.10;100517.85;105685;1277;22536;-74
2022/03/04 01:03:35;;;;;;;32.80;21.20;;;;;;;1.46;65.27;100514.18;106911;1277;23871;-85
2022/03/04 01:06:05;;;;;;;35.60;22.40;;;;;;;1.45;65.43;100514.13;106957;1277;24203;-76
2022/03/04 01:08:32;;;;;;;34.40;20.70;;;;;;;1.44;65.63;100514.13;105906;1278;22552;-76
2022/03/04 01:11:01;;;;;;;26.30;19.20;;;;;;;1.45;65.69;100515.19;106720;1281;22827;-75
2022/03/04 01:13:28;;;;;;;34.40;21.50;;;;;;;1.44;65.78;100516.04;106272;1274;24209;-75
2022/03/04 01:15:56;;;;;;;31.30;20.60;;;;;;;1.49;65.89;100512.71;106135;1273;24229;-77
2022/03/04 01:18:24;;;;;;;29.20;19.90;;;;;;;1.55;65.93;100516.36;106091;1273;22560;-76
2022/03/04 01:20:52;;;;;;;31.70;20.40;;;;;;;1.60;65.96;100516.16;106074;1273;26572;-75
2022/03/04 01:23:19;;;;;;;30.10;19.70;;;;;;;1.63;65.75;100515.89;105980;1273;22608;-74
2022/03/04 01:25:46;;;;;;;37.20;22.80;;;;;;;1.60;65.83;100515.45;106119;1273;22534;-76
2022/03/04 01:28:13;;;;;;;31.80;20.70;;;;;;;1.56;65.94;100515.34;106088;1273;25640;-75
2022/03/04 01:30:40;;;;;;;34.10;20.70;;;;;;;1.60;66.00;100514.77;106288;1273;25427;-75
2022/03/04 01:33:07;;;;;;;32.70;20.70;;;;;;;1.64;66.01;100517.84;106040;1273;22622;-76
2022/03/04 01:35:36;;;;;;;31.70;20.40;;;;;;;1.64;66.04;100517.66;106179;1273;22621;-74
2022/03/04 01:38:04;;;;;;;33.40;21.00;;;;;;;1.71;66.24;100518.39;106071;1273;22614;-74
2022/03/04 01:40:31;;;;;;;27.00;18.60;;;;;;;1.85;66.27;100516.33;106068;1274;22673;-78
2022/03/04 01:42:58;;;;;;;30.50;19.80;;;;;;;1.92;65.92;100516.38;106121;1273;23932;-77
2022/03/04 01:45:25;;;;;;;35.40;21.50;;;;;;;1.96;65.97;100517.36;106315;1273;22540;-77
2022/03/04 01:47:53;;;;;;;39.70;23.30;;;;;;;1.97;65.94;100517.90;106638;1273;24945;-77
2022/03/04 01:50:23;;;;;;;36.90;22.80;;;;;;;1.97;66.00;100517.05;107224;1273;23691;-77
2022/03/04 01:52:50;;;;;;;34.70;20.30;;;;;;;1.96;66.17;100515.63;107167;1273;22528;-78
2022/03/04 01:55:17;;;;;;;39.50;24.10;;;;;;;1.87;66.18;100507.39;107659;1273;22602;-77
2022/03/04 01:57:46;;;;;;;48.60;24.30;;;;;;;1.90;66.47;100514.06;107915;1273;23082;-80
2022/03/04 02:00:16;;;;;;;39.90;22.80;;;;;;;1.94;66.57;100513.83;108775;1273;22540;-77
2022/03/04 02:02:44;;;;;;;39.70;24.60;;;;;;;1.98;66.63;100517.22;109459;1273;22590;-81
2022/03/04 02:05:15;;;;;;;38.30;23.70;;;;;;;2.10;66.78;100512.54;109485;1273;22861;-77
2022/03/04 02:07:44;;;;;;;44.50;23.80;;;;;;;2.19;66.54;100516.93;108561;1278;22580;-82
2022/03/04 02:10:12;;;;;;;37.50;22.00;;;;;;;2.26;66.48;100519.17;108564;1279;22536;-77
2022/03/04 02:12:39;;;;;;;36.00;22.00;;;;;;;2.31;66.53;100519.15;108524;1278;22673;-83
2022/03/04 02:15:07;;;;;;;37.20;22.50;;;;;;;2.35;66.62;100518.56;109270;1278;22978;-79
2022/03/04 02:17:35;;;;;;;30.70;20.30;;;;;;;2.41;66.68;100515.09;109384;1278;22852;-76
2022/03/04 02:20:07;;;;;;;34.60;21.70;;;;;;;2.46;66.56;100518.18;109326;1278;25858;-80
2022/03/04 02:22:34;;;;;;;35.90;22.40;;;;;;;2.52;66.56;100519.00;108674;1279;22800;-78
2022/03/04 02:25:05;;;;;;;37.40;22.40;;;;;;;2.48;66.69;100518.04;109216;1273;22584;-77
2022/03/04 02:27:33;;;;;;;35.60;21.50;;;;;;;2.50;66.67;100516.70;109051;1273;22636;-77
2022/03/04 02:30:00;;;;;;;38.60;22.30;;;;;;;2.44;66.79;100516.73;108109;1273;22539;-76
2022/03/04 02:32:27;;;;;;;39.20;22.40;;;;;;;2.47;66.96;100514.19;106526;1273;23895;-78
2022/03/04 02:34:55;;;;;;;40.60;24.00;;;;;;;2.46;66.85;100514.17;106317;1274;25205;-79
2022/03/04 02:37:22;;;;;;;39.00;23.10;;;;;;;2.45;66.97;100519.02;106211;1273;22533;-77
2022/03/04 02:39:51;;;;;;;36.20;21.40;;;;;;;2.48;67.22;100513.52;106170;1273;25363;-76
2022/03/04 02:42:18;;;;;;;40.30;24.50;;;;;;;2.47;66.93;100520.10;106310;1273;22532;-78
2022/03/04 02:44:45;;;;;;;37.70;22.80;;;;;;;2.42;67.20;100516.16;106091;1273;24293;-75
2022/03/04 02:47:13;;;;;;;36.80;23.50;;;;;;;2.49;67.33;100524.50;106012;1273;24407;-76
2022/03/04 02:49:40;;;;;;;33.50;20.50;;;;;;;2.54;67.31;100524.61;105915;1273;22611;-76
2022/03/04 02:52:07;;;;;;;34.70;21.10;;;;;;;2.41;66.84;100518.55;106079;1273;22672;-76
2022/03/04 02:54:35;;;;;;;37.60;21.20;;;;;;;2.21;67.11;100522.52;105779;1274;22620;-75
2022/03/04 02:57:03;;;;;;;37.40;20.90;;;;;;;2.06;67.70;100526.67;105656;1278;25308;-76
2022/03/04 02:59:30;;;;;;;39.50;21.90;;;;;;;2.08;68.09;100526.70;105742;1277;25254;-75
2022/03/04 03:01:58;;;;;;;33.20;20.80;;;;;;;2.12;68.11;100524.56;105479;1279;25641;-77
2022/03/04 03:04:25;;;;;;;36.10;21.80;;;;;;;2.13;68.06;100523.02;105603;1279;25411;-72
2022/03/04 03:06:52;;;;;;;34.90;19.70;;;;;;;2.21;68.20;100523.76;105586;1278;25479;-73
2022/03/04 03:09:19;;;;;;;38.90;22.00;;;;;;;2.24;68.02;100517.08;104929;1284;22564;-75
2022/03/04 03:11:46;;;;;;;29.00;19.10;;;;;;;2.33;68.15;100520.95;104967;1284;22604;-78
2022/03/04 03:14:14;;;;;;;30.30;18.90;;;;;;;2.31;67.77;100516.19;105026;1285;24274;-78
2022/03/04 03:16:41;;;;;;;33.60;21.80;;;;;;;2.19;67.90;100518.17;105630;1279;24282;-75
2022/03/04 03:19:08;;;;;;;28.00;18.90;;;;;;;2.15;68.42;100516.12;105724;1279;24224;-76
2022/03/04 03:21:35;;;;;;;35.80;22.10;;;;;;;2.15;68.69;100518.39;104966;1285;24317;-78
2022/03/04 03:24:02;;;;;;;32.20;21.10;;;;;;;2.22;68.80;100521.70;105269;1284;25491;-76
2022/03/04 03:26:29;;;;;;;26.20;17.80;;;;;;;2.32;68.64;100524.56;104654;1290;24345;-75
2022/03/04 03:28:56;;;;;;;28.40;19.80;;;;;;;2.31;68.50;100526.97;105141;1284;22557;-76
2022/03/04 03:31:23;;;;;;;28.30;18.70;;;;;;;2.28;68.45;100527.42;104879;1285;22841;-76
2022/03/04 03:33:50;;;;;;;27.90;18.30;;;;;;;2.23;68.40;100529.73;105007;1285;22713;-75
2022/03/04 03:36:19;;;;;;;28.90;19.10;;;;;;;2.17;68.59;100528.71;105092;1284;22781;-79
2022/03/04 03:38:47;;;;;;;32.40;20.20;;;;;;;2.14;68.77;100529.83;104797;1285;22562;-77
2022/03/04 03:41:14;;;;;;;27.30;16.80;;;;;;;2.14;68.67;100535.91;105704;1279;24288;-79
2022/03/04 03:43:41;;;;;;;32.50;18.40;;;;;;;2.08;68.83;100536.11;105455;1281;22577;-76
2022/03/04 03:46:09;;;;;;;30.20;17.70;;;;;;;2.08;69.11;100537.13;106419;1273;22554;-75
2022/03/04 03:48:40;;;;;;;29.60;18.00;;;;;;;2.10;69.51;100539.27;106259;1273;24238;-75
2022/03/04 03:51:09;;;;;;;26.70;15.50;;;;;;;2.13;69.35;100542.83;106293;1273;22566;-77
2022/03/04 03:53:36;;;;;;;24.50;17.30;;;;;;;2.05;69.29;100543.64;106178;1273;25995;-78
2022/03/04 03:56:03;;;;;;;25.90;17.70;;;;;;;2.01;69.53;100539.38;106122;1273;22603;-76
2022/03/04 03:58:30;;;;;;;24.70;16.50;;;;;;;2.04;69.68;100541.02;106060;1273;22490;-76
2022/03/04 04:00:58;;;;;;;27.60;17.00;;;;;;;2.00;69.64;100539.70;106133;1273;23953;-73
2022/03/04 04:03:26;;;;;;;23.50;14.70;;;;;;;2.08;70.02;100545.83;106125;1273;23940;-74
2022/03/04 04:05:52;;;;;;;23.60;15.90;;;;;;;2.09;69.88;100545.33;105845;1279;23481;-75
2022/03/04 04:08:20;;;;;;;25.30;15.50;;;;;;;2.07;69.81;100546.52;105719;1276;24270;-76
2022/03/04 04:10:47;;;;;;;22.50;14.70;;;;;;;2.13;70.06;100549.11;106586;1278;22481;-74
2022/03/04 04:13:14;;;;;;;22.20;14.30;;;;;;;2.24;69.99;100544.86;107369;1276;22573;-75
2022/03/04 04:15:41;;;;;;;24.40;15.00;;;;;;;2.22;69.88;100543.08;106494;1276;25249;-75
2022/03/04 04:18:08;;;;;;;24.80;14.90;;;;;;;2.31;69.99;100551.13;106318;1276;22556;-72
2022/03/04 04:20:35;;;;;;;21.90;15.70;;;;;;;2.36;69.89;100549.54;106550;1278;22535;-72
2022/03/04 04:23:03;;;;;;;23.90;14.20;;;;;;;2.43;69.97;100551.83;106620;1276;22488;-76
2022/03/04 04:25:29;;;;;;;21.50;14.10;;;;;;;2.50;69.87;100549.02;105933;1276;22702;-76
2022/03/04 04:27:56;;;;;;;23.10;13.50;;;;;;;2.54;69.81;100553.66;106271;1273;22537;-75
2022/03/04 04:30:24;;;;;;;19.10;13.10;;;;;;;2.54;69.54;100553.30;106071;1274;22709;-72
2022/03/04 04:32:51;;;;;;;17.80;12.60;;;;;;;2.50;69.40;100556.52;106264;1273;24277;-76
2022/03/04 04:35:18;;;;;;;20.70;14.70;;;;;;;2.47;69.46;100556.44;105773;1277;22537;-77
2022/03/04 04:37:45;;;;;;;19.60;13.70;;;;;;;2.46;69.60;100561.80;105615;1279;24078;-76
2022/03/04 04:40:12;;;;;;;23.50;13.00;;;;;;;2.46;69.70;100559.02;105800;1280;22692;-76
2022/03/04 04:42:39;;;;;;;21.20;13.00;;;;;;;2.50;69.81;100560.52;105749;1276;25360;-75
2022/03/04 04:45:10;;;;;;;22.40;14.70;;;;;;;2.59;69.87;100560.23;105839;1279;22645;-77
2022/03/04 04:47:37;;;;;;;19.90;12.90;;;;;;;2.64;69.58;100564.17;105860;1276;24273;-77
2022/03/04 04:50:04;;;;;;;22.90;13.90;;;;;;;2.60;69.59;100560.61;105790;1278;23960;-76
2022/03/04 04:52:32;;;;;;;20.80;13.40;;;;;;;2.60;69.56;100564.96;105776;1277;24588;-76
2022/03/04 04:55:00;;;;;;;16.70;12.00;;;;;;;2.56;69.61;100564.84;106174;1273;25460;-81
2022/03/04 04:57:27;;;;;;;22.60;14.10;;;;;;;2.61;69.94;100566.88;106027;1273;22551;-75
2022/03/04 04:59:54;;;;;;;18.90;12.70;;;;;;;2.69;69.86;100573.02;106022;1273;24423;-73
2022/03/04 05:02:21;;;;;;;18.20;13.00;;;;;;;2.66;69.47;100568.77;105893;1276;24248;-76
2022/03/04 05:04:49;;;;;;;21.10;13.20;;;;;;;2.66;69.90;100572.23;105942;1273;23911;-74
2022/03/04 05:07:16;;;;;;;18.00;12.80;;;;;;;2.72;69.97;100571.34;106091;1273;24237;-74
2022/03/04 05:09:43;;;;;;;18.30;12.60;;;;;;;2.76;69.89;100570.21;105974;1273;22595;-75
2022/03/04 05:12:10;;;;;;;20.80;12.60;;;;;;;2.79;69.67;100569.77;105936;1274;25519;-75
2022/03/04 05:14:37;;;;;;;17.30;12.40;;;;;;;2.79;69.68;100572.40;105966;1274;24137;-75
2022/03/04 05:17:05;;;;;;;18.50;13.10;;;;;;;2.84;69.90;100571.99;106113;1274;24239;-75
2022/03/04 05:19:32;;;;;;;21.50;13.10;;;;;;;2.96;69.99;100572.98;105955;1274;22531;-74
2022/03/04 05:21:59;;;;;;;17.60;12.90;;;;;;;3.01;69.73;100571.88;106266;1273;22817;-86
2022/03/04 05:24:26;;;;;;;25.20;12.90;;;;;;;2.99;69.48;100574.61;105675;1281;24224;-84
2022/03/04 05:26:53;;;;;;;20.10;12.70;;;;;;;2.92;69.53;100578.98;105514;1281;213807;-84
2022/03/04 05:29:20;;;;;;;18.90;11.80;;;;;;;2.90;69.80;100581.36;105600;1279;25270;-84
2022/03/04 05:31:47;;;;;;;19.80;12.50;;;;;;;2.86;69.90;100583.52;105825;1279;22711;-84
2022/03/04 05:34:15;;;;;;;17.60;12.10;;;;;;;2.81;70.23;100586.17;105805;1279;22643;-85
2022/03/04 05:36:42;;;;;;;22.80;12.80;;;;;;;2.77;70.28;100587.81;105942;1279;22687;-84
2022/03/04 05:39:09;;;;;;;18.70;12.40;;;;;;;2.76;70.63;100591.08;106174;1279;22547;-85
2022/03/04 05:41:36;;;;;;;23.10;10.90;;;;;;;2.80;70.79;100596.25;106139;1280;22724;-84
2022/03/04 05:44:06;;;;;;;16.80;11.80;;;;;;;2.83;70.81;100596.84;106490;1279;22575;-84
2022/03/04 05:46:33;;;;;;;19.90;11.10;;;;;;;2.87;71.01;100599.89;105809;1284;23945;-84
2022/03/04 05:49:02;;;;;;;17.60;11.90;;;;;;;2.94;71.07;100604.08;106429;1281;23060;-86
2022/03/04 05:51:30;;;;;;;15.70;10.50;;;;;;;2.98;71.01;100599.66;105807;1287;22554;-81
2022/03/04 05:53:57;;;;;;;17.00;11.80;;;;;;;2.98;71.09;100603.48;105580;1285;25469;-76
2022/03/04 05:56:25;;;;;;;15.80;11.00;;;;;;;3.00;71.00;100608.05;105399;1285;23277;-76
2022/03/04 05:58:52;;;;;;;18.10;11.20;;;;;;;2.94;70.92;100606.70;105162;1285;23982;-71
2022/03/04 06:01:19;;;;;;;16.20;10.70;;;;;;;2.94;71.04;100608.95;104856;1285;22583;-76
2022/03/04 06:03:46;;;;;;;15.80;10.70;;;;;;;2.93;70.98;100612.23;105017;1285;22548;-81
2022/03/04 06:06:13;;;;;;;17.90;12.30;;;;;;;2.95;71.29;100612.09;105481;1281;23881;-73
2022/03/04 06:08:42;;;;;;;17.80;11.20;;;;;;;2.94;70.88;100612.77;105589;1281;22503;-74
2022/03/04 06:11:10;;;;;;;17.60;10.60;;;;;;;2.91;70.87;100617.21;106209;1273;22751;-77
2022/03/04 06:13:38;;;;;;;22.80;12.90;;;;;;;2.82;70.96;100621.35;106074;1273;25247;-81
2022/03/04 06:16:05;;;;;;;16.30;11.50;;;;;;;2.84;71.32;100624.00;106198;1273;22547;-76
2022/03/04 06:18:32;;;;;;;18.60;12.10;;;;;;;2.86;71.44;100628.06;106196;1275;22548;-77
2022/03/04 06:21:02;;;;;;;20.00;12.20;;;;;;;2.89;71.41;100625.17;106377;1273;26485;-76
2022/03/04 06:23:30;;;;;;;20.30;12.20;;;;;;;2.87;71.11;100629.14;106447;1273;26488;-76
2022/03/04 06:25:58;;;;;;;15.20;11.10;;;;;;;2.84;71.27;100632.52;106375;1273;23910;-76
2022/03/04 06:28:26;;;;;;;19.40;13.20;;;;;;;2.85;71.47;100636.57;106119;1273;25994;-75
2022/03/04 06:30:54;;;;;;;25.20;13.00;;;;;;;2.92;71.64;100643.36;106186;1273;26507;-76
2022/03/04 06:33:30;;;;;;;17.70;11.40;;;;;;;2.98;71.31;100642.10;106143;1273;22617;-77
2022/03/04 06:36:05;;;;;;;16.70;11.70;;;;;;;2.96;71.05;100646.08;107069;1273;22657;-93
2022/03/04 06:38:34;;;;;;;20.20;13.70;;;;;;;2.91;71.02;100644.70;106621;1273;26510;-79
2022/03/04 06:41:03;;;;;;;18.30;11.80;;;;;;;2.87;70.96;100651.55;106178;1274;22624;-78
2022/03/04 06:43:31;;;;;;;18.20;11.80;;;;;;;2.80;71.08;100652.27;106089;1273;22545;-80
2022/03/04 06:45:59;;;;;;;18.00;12.00;;;;;;;2.78;71.32;100658.98;106072;1273;22648;-77
2022/03/04 06:48:27;;;;;;;14.10;11.40;;;;;;;2.78;71.17;100661.59;106111;1273;25321;-78
2022/03/04 06:50:55;;;;;;;15.70;12.00;;;;;;;2.74;71.33;100661.31;106145;1273;22788;-80
2022/03/04 06:53:22;;;;;;;16.70;11.60;;;;;;;2.73;71.55;100661.27;106042;1273;24275;-79
2022/03/04 06:55:49;;;;;;;19.50;12.60;;;;;;;2.78;71.61;100665.93;106090;1273;24233;-80
2022/03/04 06:58:16;;;;;;;17.60;12.10;;;;;;;2.83;71.75;100661.75;106280;1273;23595;-80
2022/03/04 07:00:44;;;;;;;15.60;11.30;;;;;;;2.90;71.61;100662.78;106154;1273;23101;-81
2022/03/04 07:03:11;;;;;;;16.20;10.90;;;;;;;2.89;71.30;100661.90;106177;1273;22532;-81
2022/03/04 07:05:39;;;;;;;17.30;12.40;;;;;;;2.82;71.36;100663.78;106196;1274;23916;-80
2022/03/04 07:08:07;;;;;;;18.50;12.50;;;;;;;2.79;71.67;100664.77;106318;1274;25425;-80
2022/03/04 07:10:37;;;;;;;17.40;12.80;;;;;;;2.81;71.93;100665.32;106323;1273;22551;-81
2022/03/04 07:13:04;;;;;;;18.70;12.00;;;;;;;2.80;71.85;100666.70;106347;1274;25451;-80
2022/03/04 07:15:31;;;;;;;15.80;12.80;;;;;;;2.84;72.11;100670.97;106264;1273;22534;-81
2022/03/04 07:17:58;;;;;;;14.70;11.80;;;;;;;2.91;72.11;100674.45;106387;1273;25432;-81
2022/03/04 07:20:25;;;;;;;19.40;12.60;;;;;;;2.91;71.97;100676.05;106891;1273;22531;-82
2022/03/04 07:22:51;;;;;;;19.50;12.90;;;;;;;2.90;71.78;100680.00;108588;1273;22821;-81
2022/03/04 07:25:18;;;;;;;18.40;12.60;;;;;;;2.92;71.83;100679.36;108787;1273;22864;-81
2022/03/04 07:27:45;;;;;;;15.90;11.80;;;;;;;2.99;72.06;100681.27;109327;1273;22548;-80
2022/03/04 07:30:14;;;;;;;20.80;11.80;;;;;;;3.05;71.90;100683.17;108524;1274;23043;-83
2022/03/04 07:32:42;;;;;;;15.00;12.10;;;;;;;3.02;71.88;100681.89;106709;1273;24764;-83
2022/03/04 07:35:11;;;;;;;18.60;12.90;;;;;;;3.10;72.09;100686.78;106594;1276;22559;-84
2022/03/04 07:37:40;;;;;;;17.30;13.40;;;;;;;3.20;72.18;100688.27;106354;1273;22614;-82
2022/03/04 07:40:09;;;;;;;21.40;12.80;;;;;;;3.25;71.74;100688.38;105649;1279;25482;-77
2022/03/04 07:42:37;;;;;;;21.50;13.90;;;;;;;3.24;71.65;100685.59;105543;1280;22551;-82
2022/03/04 07:45:08;;;;;;;18.70;11.50;;;;;;;3.25;71.70;100687.68;105767;1281;22553;-80
2022/03/04 07:47:36;;;;;;;16.40;12.00;;;;;;;3.28;71.76;100691.79;105990;1281;22628;-82
2022/03/04 07:50:08;;;;;;;17.00;12.20;;;;;;;3.31;71.73;100694.30;105665;1279;25665;-81
2022/03/04 07:52:36;;;;;;;18.50;12.30;;;;;;;3.38;71.74;100697.07;105700;1282;22755;-79
2022/03/04 07:55:11;;;;;;;19.50;11.30;;;;;;;3.39;71.60;100696.74;105948;1279;22486;-81
2022/03/04 07:57:38;;;;;;;17.60;11.40;;;;;;;3.42;71.51;100695.79;106030;1274;22886;-81
2022/03/04 08:00:08;;;;;;;12.50;10.40;;;;;;;3.36;71.17;100697.37;106242;1273;25303;-81
2022/03/04 08:02:39;;;;;;;16.10;12.40;;;;;;;3.28;71.31;100697.86;106273;1273;22903;-81
2022/03/04 08:05:08;;;;;;;13.60;11.50;;;;;;;3.30;71.71;100702.96;106442;1273;25354;-81
2022/03/04 08:07:36;;;;;;;15.70;11.30;;;;;;;3.35;71.85;100702.73;106647;1273;25252;-81
2022/03/04 08:10:07;;;;;;;16.60;12.40;;;;;;;3.42;72.03;100703.61;106682;1277;24380;-80
2022/03/04 08:12:35;;;;;;;17.70;12.10;;;;;;;3.50;71.87;100705.20;107129;1274;22538;-82
2022/03/04 08:15:04;;;;;;;17.10;12.10;;;;;;;3.52;71.52;100709.09;107338;1273;22546;-81
2022/03/04 08:17:31;;;;;;;18.30;11.70;;;;;;;3.54;71.63;100712.45;108152;1273;22636;-82
2022/03/04 08:19:58;;;;;;;16.20;11.30;;;;;;;3.59;71.61;100711.34;108840;1273;23540;-80
2022/03/04 08:22:24;;;;;;;14.80;9.50;;;;;;;3.63;71.27;100715.45;108833;1273;22688;-81
2022/03/04 08:24:53;;;;;;;16.50;10.90;;;;;;;3.63;71.25;100718.23;108418;1274;22625;-80
2022/03/04 08:27:21;;;;;;;11.10;9.70;;;;;;;3.69;71.45;100717.33;107835;1272;22631;-82
2022/03/04 08:29:48;;;;;;;14.20;9.50;;;;;;;3.78;71.58;100717.72;107409;1274;24091;-80
2022/03/04 08:32:16;;;;;;;12.30;9.60;;;;;;;3.81;71.15;100724.95;107484;1279;22685;-84
2022/03/04 08:34:44;;;;;;;11.80;9.10;;;;;;;3.81;71.26;100725.98;108416;1280;23026;-80
2022/03/04 08:37:11;;;;;;;11.20;9.00;;;;;;;3.88;71.35;100725.11;107982;1284;23866;-80
2022/03/04 08:39:38;;;;;;;14.80;9.80;;;;;;;3.95;71.20;100730.33;107149;1284;25321;-81
2022/03/04 08:42:07;;;;;;;13.40;9.40;;;;;;;3.98;70.98;100732.48;106954;1284;25841;-79
2022/03/04 08:44:34;;;;;;;15.20;9.70;;;;;;;4.04;70.87;100731.92;106549;1285;22490;-81
2022/03/04 08:47:03;;;;;;;14.00;9.10;;;;;;;4.07;70.54;100730.08;106197;1284;25533;-81
2022/03/04 08:49:30;;;;;;;10.90;9.00;;;;;;;4.09;70.71;100733.08;105529;1284;25990;-78
2022/03/04 08:51:58;;;;;;;12.10;9.00;;;;;;;4.12;70.54;100729.83;106185;1278;24355;-82
2022/03/04 08:54:26;;;;;;;11.70;8.60;;;;;;;4.16;70.63;100736.04;106139;1275;22547;-81
2022/03/04 08:56:54;;;;;;;11.20;8.90;;;;;;;4.21;70.68;100733.01;106379;1275;22540;-82
2022/03/04 08:59:22;;;;;;;11.00;8.50;;;;;;;4.26;70.48;100735.55;106346;1274;26753;-81
2022/03/04 09:01:49;;;;;;;10.30;8.20;;;;;;;4.26;70.38;100737.47;106421;1274;25845;-81
2022/03/04 09:04:17;;;;;;;14.10;9.10;;;;;;;4.27;70.28;100743.24;106228;1274;22538;-80
2022/03/04 09:06:45;;;;;;;14.10;9.90;;;;;;;4.25;69.99;100740.41;106151;1273;24222;-81
2022/03/04 09:09:13;;;;;;;11.20;8.40;;;;;;;4.22;70.07;100741.05;106251;1274;24689;-80
2022/03/04 09:11:41;;;;;;;15.90;9.20;;;;;;;4.18;70.05;100739.91;106218;1275;24879;-81
2022/03/04 09:14:09;;;;;;;12.40;8.00;;;;;;;4.18;70.24;100743.21;106228;1275;24362;-81
2022/03/04 09:16:37;;;;;;;12.90;8.30;;;;;;;4.21;70.18;100737.55;106257;1273;25254;-83
2022/03/04 09:19:04;;;;;;;14.10;8.90;;;;;;;4.25;70.18;100740.93;106014;1274;22671;-81
2022/03/04 09:21:31;;;;;;;12.00;7.90;;;;;;;4.31;70.19;100745.27;106281;1273;25346;-82
2022/03/04 09:23:59;;;;;;;11.40;8.40;;;;;;;4.29;70.04;100749.58;106081;1277;24388;-79
2022/03/04 09:26:27;;;;;;;13.20;9.30;;;;;;;4.27;70.08;100747.61;106177;1274;24298;-81
2022/03/04 09:28:54;;;;;;;12.30;9.00;;;;;;;4.25;70.08;100751.23;106083;1274;22529;-80
2022/03/04 09:31:21;;;;;;;15.90;9.00;;;;;;;4.22;70.01;100751.51;106205;1274;24959;-82
2022/03/04 09:33:48;;;;;;;13.30;9.00;;;;;;;4.23;70.21;100751.88;106161;1274;22531;-80
2022/03/04 09:36:16;;;;;;;12.80;8.90;;;;;;;4.25;70.04;100751.23;106083;1274;22534;-80
2022/03/04 09:38:43;;;;;;;12.50;8.90;;;;;;;4.21;69.99;100753.23;106358;1273;23381;-82
2022/03/04 09:41:11;;;;;;;12.00;9.00;;;;;;;4.20;70.11;100755.13;106251;1275;22525;-80
2022/03/04 09:43:39;;;;;;;14.60;8.90;;;;;;;4.20;70.30;100758.09;106882;1274;22672;-80
2022/03/04 09:46:07;;;;;;;12.30;8.40;;;;;;;4.24;70.26;100756.42;107136;1273;22583;-80
2022/03/04 09:48:40;;;;;;;12.40;9.40;;;;;;;4.26;70.15;100759.95;107691;1274;22546;-81
2022/03/04 09:51:08;;;;;;;11.00;8.00;;;;;;;4.30;70.31;100760.59;107165;1275;22536;-80
2022/03/04 09:53:36;;;;;;;12.50;8.80;;;;;;;4.36;70.37;100761.75;107794;1273;22577;-82
2022/03/04 09:56:03;;;;;;;12.00;8.20;;;;;;;4.40;70.53;100759.56;107014;1281;22574;-80
2022/03/04 09:58:31;;;;;;;12.60;9.10;;;;;;;4.47;70.32;100761.80;106106;1281;22528;-84
2022/03/04 10:01:00;;;;;;;14.00;8.80;;;;;;;4.52;70.32;100759.30;106022;1281;24401;-82
2022/03/04 10:03:30;;;;;;;11.90;9.40;;;;;;;4.54;70.24;100759.88;105786;1281;23344;-79
2022/03/04 10:06:00;;;;;;;13.60;9.40;;;;;;;4.55;70.19;100761.31;105617;1279;22650;-79
2022/03/04 10:08:27;;;;;;;12.10;8.20;;;;;;;4.52;70.00;100755.99;105669;1281;25597;-79
2022/03/04 10:10:58;;;;;;;14.00;9.30;;;;;;;4.45;69.91;100760.73;105585;1281;25345;-78
2022/03/04 10:13:57;;;;;;;12.30;8.50;;;;;;;4.46;70.14;100755.86;105927;1277;24552;-81
2022/03/04 10:16:28;;;;;;;13.50;8.60;;;;;;;4.55;70.34;100761.14;105994;1274;23130;-81
2022/03/04 10:19:05;;;;;;;10.20;8.30;;;;;;;4.63;70.25;100763.02;106225;1274;22537;-80
2022/03/04 10:21:44;;;;;;;10.40;8.30;;;;;;;4.65;70.10;100763.08;106087;1278;25470;-79
2022/03/04 10:24:10;;;;;;;10.00;8.10;;;;;;;4.73;70.19;100760.27;105942;1278;22551;-82
2022/03/04 10:26:38;;;;;;;11.40;8.10;;;;;;;4.77;70.04;100760.54;105848;1278;22766;-81
2022/03/04 10:29:19;;;;;;;11.20;8.20;;;;;;;4.81;69.90;100759.90;106137;1278;22620;-80
2022/03/04 10:32:08;;;;;;;11.00;7.60;;;;;;;4.81;69.83;100759.91;107912;1277;22535;-81
2022/03/04 10:34:49;;;;;;;11.00;7.60;;;;;;;4.78;69.63;100756.37;107526;1281;25247;-81
2022/03/04 10:37:19;;;;;;;11.10;7.50;;;;;;;4.77;69.62;100757.22;106261;1287;22954;-80
2022/03/04 10:40:10;;;;;;;10.80;7.80;;;;;;;4.73;69.52;100754.34;107853;1284;22672;-80
2022/03/04 10:42:46;;;;;;;12.40;8.10;;;;;;;4.71;69.62;100755.70;106179;1290;22568;-79
2022/03/04 10:45:17;;;;;;;11.60;7.30;;;;;;;4.70;69.49;100757.41;104822;1291;25401;-82
2022/03/04 10:47:44;;;;;;;9.70;7.40;;;;;;;4.69;69.41;100751.80;104752;1291;22629;-80
2022/03/04 10:50:14;;;;;;;10.10;6.90;;;;;;;4.67;69.58;100755.63;104635;1290;25491;-81
2022/03/04 10:52:49;;;;;;;7.90;6.90;;;;;;;4.69;69.62;100756.86;104477;1287;22541;-80
2022/03/04 10:55:39;;;;;;;10.50;7.70;;;;;;;4.68;69.64;100759.81;105272;1281;25201;-78
2022/03/04 10:58:24;;;;;;;10.20;6.50;;;;;;;4.71;69.69;100759.36;105667;1281;22543;-79
2022/03/04 11:00:56;;;;;;;8.00;6.90;;;;;;;4.62;69.60;100750.10;105726;1275;22548;-80
2022/03/04 11:03:27;;;;;;;9.40;7.30;;;;;;;4.66;69.71;100763.45;106010;1275;22553;-79
2022/03/04 11:05:57;;;;;;;9.80;7.80;;;;;;;4.71;69.88;100764.06;106064;1275;25301;-78
2022/03/04 11:08:24;;;;;;;8.80;6.60;;;;;;;4.72;69.51;100765.84;106268;1273;24360;-78
2022/03/04 11:10:53;;;;;;;9.90;7.20;;;;;;;4.73;69.44;100769.88;106265;1274;25364;-80
2022/03/04 11:13:21;;;;;;;9.50;6.60;;;;;;;4.76;69.48;100770.45;106088;1275;24290;-81
2022/03/04 11:15:50;;;;;;;8.80;6.30;;;;;;;4.86;69.42;100768.75;105757;1279;22553;-80
2022/03/04 11:18:19;;;;;;;8.30;6.90;;;;;;;5.06;69.27;100773.48;105674;1281;22549;-79